createdAt,value
2019-04-20T00:00:01.674Z,51.80
2019-04-20T00:02:08.302Z,52.08
2019-04-20T00:04:01.206Z,52.06
2019-04-20T00:06:03.521Z,52.17
2019-04-20T00:08:08.953Z,52.06
2019-04-20T00:10:10.892Z,52.14
2019-04-20T00:12:16.898Z,52.20
2019-04-20T00:14:16.211Z,52.34
2019-04-20T00:16:11.068Z,52.11
2019-04-20T00:18:13.494Z,52.16
2019-04-20T00:20:20.672Z,52.11
2019-04-20T00:22:40.235Z,52.05
2019-04-20T00:24:35.891Z,52.24
2019-04-20T00:27:04.463Z,52.32
2019-04-20T00:28:57.166Z,52.30
2019-04-20T00:30:57.080Z,52.18
2019-04-20T00:32:53.364Z,52.26
2019-04-20T00:34:45.304Z,52.09
2019-04-20T00:36:43.465Z,52.29
2019-04-20T00:38:51.000Z,52.28
2019-04-20T00:40:53.842Z,52.34
2019-04-20T00:42:52.503Z,52.37
2019-04-20T00:44:56.398Z,52.39
2019-04-20T00:47:04.899Z,52.65
2019-04-20T00:49:01.589Z,52.79
2019-04-20T00:51:17.220Z,52.78
2019-04-20T00:53:08.123Z,52.83
2019-04-20T00:54:58.396Z,52.80
2019-04-20T00:57:12.062Z,53.09
2019-04-20T00:59:13.085Z,52.92
2019-04-20T01:01:20.563Z,52.83
2019-04-20T01:03:20.924Z,52.83
2019-04-20T01:05:22.971Z,52.85
2019-04-20T01:07:23.237Z,52.81
2019-04-20T01:09:14.006Z,52.83
2019-04-20T01:11:16.766Z,53.04
2019-04-20T01:13:20.154Z,53.21
2019-04-20T01:15:31.937Z,53.51
2019-04-20T01:17:19.340Z,53.70
2019-04-20T01:19:20.954Z,53.80
2019-04-20T01:21:26.440Z,53.79
2019-04-20T01:23:33.146Z,53.99
2019-04-20T01:25:32.315Z,54.09
2019-04-20T01:27:39.809Z,54.36
2019-04-20T01:29:36.913Z,54.33
2019-04-20T01:31:38.343Z,54.65
2019-04-20T01:33:42.624Z,54.85
2019-04-20T01:35:48.894Z,54.95
2019-04-20T01:37:52.741Z,54.76
2019-04-20T01:39:45.195Z,54.76
2019-04-20T01:41:39.381Z,55.28
2019-04-20T01:43:41.560Z,55.23
2019-04-20T01:45:44.003Z,55.26
2019-04-20T01:47:50.291Z,55.58
2019-04-20T01:49:49.700Z,55.83
2019-04-20T01:51:57.709Z,55.60
2019-04-20T01:54:06.770Z,55.32
2019-04-20T01:56:07.217Z,55.04
2019-04-20T01:58:11.626Z,54.69
2019-04-20T02:00:22.648Z,54.43
2019-04-20T02:02:19.354Z,54.49
2019-04-20T02:04:24.767Z,54.34
2019-04-20T02:06:23.160Z,54.11
2019-04-20T02:08:25.861Z,54.08
2019-04-20T02:10:33.272Z,53.83
2019-04-20T02:12:30.718Z,53.86
2019-04-20T02:14:37.066Z,53.38
2019-04-20T02:16:37.199Z,53.58
2019-04-20T02:18:42.076Z,53.30
2019-04-20T02:20:48.490Z,53.50
2019-04-20T02:22:51.606Z,53.03
2019-04-20T02:24:36.967Z,53.10
2019-04-20T02:26:37.292Z,53.17
2019-04-20T02:29:07.983Z,53.07
2019-04-20T02:31:19.869Z,53.34
2019-04-20T02:35:36.470Z,53.49
2019-04-20T02:37:44.561Z,53.33
2019-04-20T02:41:47.627Z,53.50
2019-04-20T02:43:48.360Z,53.63
2019-04-20T02:47:46.055Z,53.59
2019-04-20T02:49:45.410Z,54.09
2019-04-20T02:51:41.181Z,54.12
2019-04-20T02:53:51.182Z,54.25
2019-04-20T02:55:48.449Z,54.33
2019-04-20T02:57:54.839Z,54.18
2019-04-20T03:00:01.116Z,54.12
2019-04-20T03:01:43.627Z,54.16
2019-04-20T03:03:30.709Z,54.48
2019-04-20T03:05:35.229Z,54.40
2019-04-20T03:07:41.473Z,54.29
2019-04-20T03:09:47.237Z,54.58
2019-04-20T03:11:59.765Z,54.80
2019-04-20T03:13:53.159Z,54.71
2019-04-20T03:15:56.461Z,54.91
2019-04-20T03:18:00.085Z,54.74
2019-04-20T03:19:51.625Z,54.83
2019-04-20T03:22:05.185Z,54.72
2019-04-20T03:24:06.442Z,54.62
2019-04-20T03:26:19.133Z,54.53
2019-04-20T03:28:15.518Z,54.37
2019-04-20T03:31:07.449Z,54.57
2019-04-20T03:34:55.384Z,54.43
2019-04-20T03:36:39.761Z,54.41
2019-04-20T03:38:26.282Z,54.10
2019-04-20T03:40:26.359Z,54.23
2019-04-20T03:42:14.197Z,54.03
2019-04-20T03:44:19.172Z,54.25
2019-04-20T03:46:19.978Z,54.10
2019-04-20T03:48:35.932Z,54.13
2019-04-20T03:50:41.201Z,54.03
2019-04-20T03:52:37.282Z,54.25
2019-04-20T03:54:38.666Z,54.25
2019-04-20T03:56:54.454Z,54.24
2019-04-20T03:58:56.548Z,54.15
2019-04-20T04:01:12.594Z,53.90
2019-04-20T04:03:34.946Z,54.01
2019-04-20T04:05:27.927Z,53.94
2019-04-20T04:07:19.479Z,53.87
2019-04-20T04:09:25.719Z,53.92
2019-04-20T04:11:34.072Z,53.83
2019-04-20T04:13:16.796Z,53.70
2019-04-20T04:15:18.772Z,53.87
2019-04-20T04:17:26.464Z,53.66
2019-04-20T04:19:27.989Z,53.87
2019-04-20T04:21:40.798Z,53.76
2019-04-20T04:23:40.408Z,53.92
2019-04-20T04:25:42.733Z,54.20
2019-04-20T04:27:40.658Z,54.12
2019-04-20T04:29:46.814Z,54.29
2019-04-20T04:31:55.451Z,54.30
2019-04-20T04:33:56.915Z,54.40
2019-04-20T04:35:52.726Z,54.32
2019-04-20T04:37:54.981Z,54.25
2019-04-20T04:40:01.016Z,54.44
2019-04-20T04:42:07.456Z,54.22
2019-04-20T04:43:58.718Z,54.30
2019-04-20T04:45:42.652Z,54.31
2019-04-20T04:47:45.100Z,54.35
2019-04-20T04:49:55.229Z,54.38
2019-04-20T04:51:55.288Z,54.10
2019-04-20T04:53:58.022Z,54.28
2019-04-20T04:55:58.306Z,54.39
2019-04-20T04:57:53.703Z,54.40
2019-04-20T04:59:55.278Z,54.64
2019-04-20T05:01:58.147Z,54.47
2019-04-20T05:06:20.962Z,54.66
2019-04-20T05:08:10.137Z,54.76
2019-04-20T05:10:03.559Z,54.99
2019-04-20T05:12:11.774Z,54.90
2019-04-20T05:14:10.947Z,54.84
2019-04-20T05:16:26.078Z,54.81
2019-04-20T05:18:36.063Z,54.97
2019-04-20T05:20:29.037Z,55.10
2019-04-20T05:22:32.346Z,54.75
2019-04-20T05:24:34.960Z,54.62
2019-04-20T05:26:48.479Z,54.67
2019-04-20T05:28:49.150Z,54.79
2019-04-20T05:30:46.875Z,54.36
2019-04-20T05:32:52.460Z,54.63
2019-04-20T05:35:08.109Z,54.31
2019-04-20T05:37:04.748Z,54.91
2019-04-20T05:39:15.857Z,54.84
2019-04-20T05:41:09.893Z,54.98
2019-04-20T05:43:22.902Z,54.77
2019-04-20T05:45:25.217Z,54.77
2019-04-20T05:47:27.035Z,54.78
2019-04-20T05:49:29.998Z,54.90
2019-04-20T05:51:36.180Z,54.97
2019-04-20T05:53:32.617Z,54.85
2019-04-20T05:55:34.513Z,54.74
2019-04-20T05:57:35.075Z,54.71
2019-04-20T05:59:40.914Z,54.93
2019-04-20T06:01:49.987Z,54.58
2019-04-20T06:03:37.157Z,54.85
2019-04-20T06:05:52.292Z,54.92
2019-04-20T06:07:48.870Z,54.92
2019-04-20T06:09:48.189Z,54.96
2019-04-20T06:12:02.693Z,54.75
2019-04-20T06:14:03.700Z,54.97
2019-04-20T06:16:07.422Z,55.17
2019-04-20T06:18:13.245Z,55.29
2019-04-20T06:20:21.801Z,55.46
2019-04-20T06:22:28.518Z,55.61
2019-04-20T06:24:26.721Z,55.42
2019-04-20T06:26:47.599Z,55.62
2019-04-20T06:28:26.736Z,55.51
2019-04-20T06:30:26.250Z,55.56
2019-04-20T06:32:42.592Z,55.58
2019-04-20T06:34:42.521Z,55.55
2019-04-20T06:36:40.818Z,55.36
2019-04-20T06:40:55.628Z,55.21
2019-04-20T06:42:41.054Z,55.21
2019-04-20T06:44:41.299Z,55.17
2019-04-20T06:46:53.634Z,55.19
2019-04-20T06:48:49.974Z,55.07
2019-04-20T06:50:47.061Z,55.15
2019-04-20T06:52:52.548Z,54.80
2019-04-20T06:54:59.323Z,54.85
2019-04-20T06:57:05.862Z,54.72
2019-04-20T06:59:12.284Z,54.84
2019-04-20T07:01:13.700Z,54.85
2019-04-20T07:03:26.217Z,54.54
2019-04-20T07:05:13.083Z,54.91
2019-04-20T07:07:14.671Z,55.13
2019-04-20T07:09:35.017Z,54.81
2019-04-20T07:11:22.291Z,54.34
2019-04-20T07:13:11.591Z,54.34
2019-04-20T07:15:16.290Z,54.40
2019-04-20T07:17:32.972Z,54.34
2019-04-20T07:19:24.035Z,54.49
2019-04-20T07:21:51.920Z,54.54
2019-04-20T07:23:48.222Z,54.60
2019-04-20T07:25:52.873Z,54.47
2019-04-20T07:27:53.647Z,54.35
2019-04-20T07:29:56.519Z,54.35
2019-04-20T07:31:48.758Z,53.78
2019-04-20T07:33:56.844Z,54.37
2019-04-20T07:35:56.267Z,54.62
2019-04-20T07:38:23.444Z,54.67
2019-04-20T07:40:01.084Z,54.62
2019-04-20T07:42:08.227Z,54.39
2019-04-20T07:44:11.862Z,54.24
2019-04-20T07:46:10.396Z,54.01
2019-04-20T07:48:13.142Z,53.69
2019-04-20T07:50:04.605Z,53.57
2019-04-20T07:51:50.413Z,53.35
2019-04-20T07:54:21.926Z,53.13
2019-04-20T07:56:14.741Z,53.04
2019-04-20T07:58:09.778Z,52.97
2019-04-20T08:00:17.555Z,52.90
2019-04-20T08:02:43.588Z,52.82
2019-04-20T08:04:52.426Z,52.78
2019-04-20T08:06:43.120Z,52.77
2019-04-20T08:08:55.651Z,52.70
2019-04-20T08:10:53.818Z,52.58
2019-04-20T08:15:13.304Z,52.41
2019-04-20T08:19:05.208Z,52.18
2019-04-20T08:21:12.955Z,52.15
2019-04-20T08:23:13.036Z,52.08
2019-04-20T08:25:06.939Z,51.93
2019-04-20T08:26:58.964Z,51.89
2019-04-20T08:29:14.884Z,51.80
2019-04-20T08:31:33.422Z,51.78
2019-04-20T08:33:47.204Z,51.80
2019-04-20T08:35:48.868Z,51.79
2019-04-20T08:38:01.833Z,51.77
2019-04-20T08:39:59.023Z,51.79
2019-04-20T08:41:56.433Z,51.83
2019-04-20T08:44:05.152Z,51.82
2019-04-20T08:45:50.959Z,51.81
2019-04-20T08:47:57.038Z,51.81
2019-04-20T08:50:05.081Z,51.77
2019-04-20T08:54:00.050Z,51.79
2019-04-20T08:55:56.773Z,51.78
2019-04-20T08:57:44.376Z,51.77
2019-04-20T08:59:48.254Z,51.76
2019-04-20T09:01:46.796Z,51.76
2019-04-20T09:04:00.856Z,51.72
2019-04-20T09:05:59.495Z,50.71
2019-04-20T09:08:02.499Z,42.85
2019-04-20T09:10:16.373Z,38.18
2019-04-20T09:12:11.885Z,33.58
2019-04-20T09:14:00.138Z,34.17
2019-04-20T09:15:58.091Z,37.86
2019-04-20T09:18:05.013Z,36.72
2019-04-20T09:20:09.620Z,38.50
2019-04-20T09:22:18.851Z,39.16
2019-04-20T09:24:36.841Z,38.52
2019-04-20T09:26:35.463Z,38.58
2019-04-20T09:28:25.544Z,39.90
2019-04-20T09:30:27.887Z,39.55
2019-04-20T09:32:36.174Z,38.36
2019-04-20T09:34:41.731Z,39.07
2019-04-20T09:36:37.488Z,38.56
2019-04-20T09:38:46.418Z,38.48
2019-04-20T09:40:50.382Z,38.32
2019-04-20T09:42:37.666Z,38.02
2019-04-20T09:44:42.869Z,38.72
2019-04-20T09:46:46.034Z,39.67
2019-04-20T09:48:49.114Z,39.80
2019-04-20T09:51:04.978Z,39.77
2019-04-20T09:53:02.409Z,40.30
2019-04-20T09:55:03.178Z,39.78
2019-04-20T09:57:11.744Z,40.37
2019-04-20T09:59:08.194Z,40.78
2019-04-20T10:01:07.415Z,40.69
2019-04-20T10:02:54.676Z,40.32
2019-04-20T10:04:55.859Z,39.99
2019-04-20T10:07:02.310Z,40.26
2019-04-20T10:09:02.850Z,40.89
2019-04-20T10:11:01.616Z,39.98
2019-04-20T10:13:05.563Z,39.99
2019-04-20T10:15:12.182Z,38.85
2019-04-20T10:17:07.771Z,39.61
2019-04-20T10:19:11.443Z,39.70
2019-04-20T10:21:09.873Z,38.62
2019-04-20T10:23:12.440Z,39.14
2019-04-20T10:25:13.104Z,39.29
2019-04-20T10:27:14.704Z,39.13
2019-04-20T10:29:17.448Z,39.22
2019-04-20T10:31:17.988Z,39.66
2019-04-20T10:33:19.635Z,39.63
2019-04-20T10:35:21.374Z,40.16
2019-04-20T10:37:23.903Z,40.11
2019-04-20T10:39:24.626Z,40.82
2019-04-20T10:41:36.093Z,41.25
2019-04-20T10:43:28.163Z,41.69
2019-04-20T10:45:30.800Z,41.92
2019-04-20T10:47:31.199Z,41.68
2019-04-20T10:49:33.248Z,41.60
2019-04-20T10:51:35.603Z,41.55
2019-04-20T10:53:36.693Z,41.79
2019-04-20T10:55:37.803Z,41.73
2019-04-20T10:57:39.709Z,41.83
2019-04-20T10:59:41.528Z,41.76
2019-04-20T11:01:43.417Z,42.14
2019-04-20T11:03:44.850Z,41.99
2019-04-20T11:05:46.780Z,42.36
2019-04-20T11:07:48.430Z,42.45
2019-04-20T11:10:02.290Z,42.66
2019-04-20T11:11:52.184Z,42.82
2019-04-20T11:13:53.153Z,43.21
2019-04-20T11:15:54.683Z,43.26
2019-04-20T11:17:57.446Z,44.32
2019-04-20T11:19:59.105Z,42.11
2019-04-20T11:21:59.466Z,41.61
2019-04-20T11:24:02.263Z,40.95
2019-04-20T11:26:02.722Z,40.00
2019-04-20T11:28:04.321Z,40.46
2019-04-20T11:30:05.932Z,40.92
2019-04-20T11:32:07.520Z,41.24
2019-04-20T11:34:10.255Z,41.17
2019-04-20T11:36:10.809Z,41.34
2019-04-20T11:38:14.256Z,41.00
2019-04-20T11:40:15.027Z,41.13
2019-04-20T11:42:15.761Z,41.10
2019-04-20T11:44:17.918Z,41.12
2019-04-20T11:46:19.020Z,40.97
2019-04-20T11:48:21.289Z,40.24
2019-04-20T11:50:22.280Z,40.08
2019-04-20T11:52:25.430Z,40.00
2019-04-20T11:54:26.356Z,40.20
2019-04-20T11:56:32.983Z,40.05
2019-04-20T11:58:30.237Z,38.34
2019-04-20T12:00:37.075Z,39.02
2019-04-20T12:02:39.792Z,39.07
2019-04-20T12:04:44.207Z,39.30
2019-04-20T12:06:39.289Z,39.49
2019-04-20T12:08:42.730Z,39.66
2019-04-20T12:10:44.706Z,38.48
2019-04-20T12:12:48.754Z,39.27
2019-04-20T12:14:46.451Z,39.69
2019-04-20T12:16:47.816Z,39.96
2019-04-20T12:18:50.209Z,40.06
2019-04-20T12:20:50.873Z,39.62
2019-04-20T12:22:52.634Z,40.42
2019-04-20T12:24:54.183Z,40.31
2019-04-20T12:26:56.521Z,37.36
2019-04-20T12:28:57.963Z,36.96
2019-04-20T12:31:04.137Z,37.52
2019-04-20T12:33:02.189Z,36.38
2019-04-20T12:35:02.644Z,37.09
2019-04-20T12:37:05.010Z,37.40
2019-04-20T12:39:06.903Z,37.16
2019-04-20T12:41:09.180Z,37.57
2019-04-20T12:43:09.086Z,38.17
2019-04-20T12:45:11.504Z,37.18
2019-04-20T12:47:12.335Z,37.79
2019-04-20T12:49:13.953Z,38.26
2019-04-20T12:51:15.636Z,38.43
2019-04-20T12:53:17.246Z,38.54
2019-04-20T12:55:18.877Z,38.46
2019-04-20T12:57:20.745Z,37.92
2019-04-20T12:59:23.347Z,38.76
2019-04-20T13:01:25.770Z,38.89
2019-04-20T13:03:25.645Z,38.90
2019-04-20T13:05:27.707Z,39.03
2019-04-20T13:07:31.599Z,39.07
2019-04-20T13:09:30.673Z,39.28
2019-04-20T13:11:44.383Z,39.35
2019-04-20T13:13:44.609Z,39.76
2019-04-20T13:16:02.539Z,39.92
2019-04-20T13:18:03.287Z,40.05
2019-04-20T13:20:05.883Z,40.10
2019-04-20T13:22:07.352Z,39.61
2019-04-20T13:24:09.265Z,39.45
2019-04-20T13:26:11.027Z,38.27
2019-04-20T13:28:11.265Z,39.32
2019-04-20T13:30:13.240Z,39.72
2019-04-20T13:32:15.845Z,39.33
2019-04-20T13:34:17.294Z,39.53
2019-04-20T13:36:17.883Z,39.68
2019-04-20T13:38:20.354Z,39.70
2019-04-20T13:40:21.814Z,39.70
2019-04-20T13:42:26.616Z,39.94
2019-04-20T13:44:24.500Z,39.73
2019-04-20T13:46:27.132Z,39.70
2019-04-20T13:48:28.780Z,39.64
2019-04-20T13:50:29.568Z,39.48
2019-04-20T13:52:31.076Z,39.52
2019-04-20T13:54:33.660Z,39.29
2019-04-20T13:56:35.300Z,39.07
2019-04-20T13:58:41.592Z,39.59
2019-04-20T14:00:50.924Z,39.57
2019-04-20T14:03:09.004Z,39.91
2019-04-20T14:05:10.829Z,39.83
2019-04-20T14:07:14.165Z,39.95
2019-04-20T14:09:13.362Z,40.04
2019-04-20T14:11:15.589Z,39.79
2019-04-20T14:13:19.205Z,38.37
2019-04-20T14:15:19.394Z,39.09
2019-04-20T14:17:21.126Z,39.24
2019-04-20T14:19:23.067Z,39.02
2019-04-20T14:21:23.963Z,39.60
2019-04-20T14:23:25.242Z,39.55
2019-04-20T14:25:41.264Z,39.92
2019-04-20T14:27:42.963Z,40.02
2019-04-20T14:29:46.296Z,38.89
2019-04-20T14:31:46.322Z,39.85
2019-04-20T14:33:48.779Z,39.30
2019-04-20T14:35:50.615Z,40.00
2019-04-20T14:37:52.091Z,40.14
2019-04-20T14:39:54.360Z,40.02
2019-04-20T14:41:54.586Z,39.20
2019-04-20T14:43:57.289Z,39.24
2019-04-20T14:45:58.759Z,38.09
2019-04-20T14:47:59.608Z,40.34
2019-04-20T14:50:03.117Z,40.20
2019-04-20T14:52:04.182Z,40.36
2019-04-20T14:54:05.557Z,39.32
2019-04-20T14:56:07.269Z,38.45
2019-04-20T14:58:07.913Z,38.34
2019-04-20T15:00:15.290Z,36.73
2019-04-20T15:02:17.396Z,40.83
2019-04-20T15:04:21.508Z,41.44
2019-04-20T15:06:20.244Z,41.46
2019-04-20T15:08:22.825Z,41.47
2019-04-20T15:10:24.752Z,42.49
2019-04-20T15:12:37.775Z,39.74
2019-04-20T15:14:26.916Z,41.73
2019-04-20T15:16:28.716Z,39.98
2019-04-20T15:18:35.343Z,39.87
2019-04-20T15:20:37.455Z,40.31
2019-04-20T15:22:41.403Z,41.60
2019-04-20T15:24:42.600Z,41.20
2019-04-20T15:26:44.512Z,40.43
2019-04-20T15:28:46.243Z,39.81
2019-04-20T15:30:47.971Z,39.91
2019-04-20T15:32:49.292Z,38.24
2019-04-20T15:34:50.984Z,40.48
2019-04-20T15:36:52.360Z,39.72
2019-04-20T15:38:53.960Z,40.63
2019-04-20T15:40:55.571Z,40.55
2019-04-20T15:43:05.886Z,40.92
2019-04-20T15:44:58.859Z,40.59
2019-04-20T15:47:01.436Z,41.08
2019-04-20T15:49:02.194Z,40.70
2019-04-20T15:51:03.795Z,40.33
2019-04-20T15:53:05.921Z,38.78
2019-04-20T15:55:16.947Z,40.09
2019-04-20T15:57:15.056Z,40.43
2019-04-20T15:59:10.573Z,40.69
2019-04-20T16:01:12.252Z,38.60
2019-04-20T16:03:19.338Z,38.47
2019-04-20T16:05:40.812Z,38.38
2019-04-20T16:07:50.155Z,37.90
2019-04-20T16:09:44.310Z,38.60
2019-04-20T16:11:44.884Z,37.95
2019-04-20T16:13:50.045Z,37.58
2019-04-20T16:15:47.980Z,38.43
2019-04-20T16:17:53.011Z,37.81
2019-04-20T16:20:00.330Z,38.98
2019-04-20T16:21:53.981Z,38.22
2019-04-20T16:23:54.880Z,38.40
2019-04-20T16:26:01.743Z,37.51
2019-04-20T16:28:03.596Z,37.27
2019-04-20T16:30:05.415Z,37.57
2019-04-20T16:32:06.711Z,37.70
2019-04-20T16:34:07.705Z,37.63
2019-04-20T16:36:10.014Z,38.22
2019-04-20T16:38:10.738Z,38.35
2019-04-20T16:40:13.602Z,38.64
2019-04-20T16:42:14.264Z,38.55
2019-04-20T16:44:17.412Z,38.75
2019-04-20T16:46:20.530Z,38.86
2019-04-20T16:48:19.949Z,39.18
2019-04-20T16:50:20.963Z,39.32
2019-04-20T16:52:23.031Z,39.40
2019-04-20T16:54:24.235Z,38.82
2019-04-20T16:56:26.548Z,39.65
2019-04-20T16:58:28.138Z,39.60
2019-04-20T17:00:29.459Z,39.46
2019-04-20T17:02:31.868Z,39.08
2019-04-20T17:04:33.756Z,40.54
2019-04-20T17:06:34.241Z,40.12
2019-04-20T17:08:36.820Z,40.03
2019-04-20T17:10:37.475Z,40.46
2019-04-20T17:12:39.935Z,40.92
2019-04-20T17:14:40.792Z,41.15
2019-04-20T17:16:43.793Z,41.11
2019-04-20T17:18:45.641Z,41.60
2019-04-20T17:20:46.594Z,41.96
2019-04-20T17:22:48.643Z,41.84
2019-04-20T17:24:49.792Z,42.18
2019-04-20T17:26:55.058Z,42.37
2019-04-20T17:29:13.632Z,42.31
2019-04-20T17:31:17.530Z,42.89
2019-04-20T17:33:21.288Z,42.32
2019-04-20T17:35:34.656Z,42.91
2019-04-20T17:37:22.776Z,43.50
2019-04-20T17:39:35.903Z,43.11
2019-04-20T17:41:47.441Z,43.08
2019-04-20T17:43:37.365Z,43.33
2019-04-20T17:45:41.489Z,40.58
2019-04-20T17:47:52.834Z,43.65
2019-04-20T17:49:49.272Z,43.65
2019-04-20T17:51:59.238Z,43.61
2019-04-20T17:53:54.811Z,43.83
2019-04-20T17:55:50.032Z,43.87
2019-04-20T17:57:51.086Z,43.90
2019-04-20T17:59:58.693Z,44.01
2019-04-20T18:02:22.458Z,43.87
2019-04-20T18:04:49.052Z,43.67
2019-04-20T18:06:34.870Z,44.01
2019-04-20T18:08:43.700Z,43.96
2019-04-20T18:10:40.364Z,44.05
2019-04-20T18:12:32.769Z,44.08
2019-04-20T18:14:43.179Z,43.78
2019-04-20T18:16:56.953Z,44.10
2019-04-20T18:19:06.130Z,43.70
2019-04-20T18:21:01.052Z,43.21
2019-04-20T18:23:02.567Z,42.79
2019-04-20T18:25:25.136Z,42.59
2019-04-20T18:27:28.909Z,43.01
2019-04-20T18:29:29.248Z,43.53
2019-04-20T18:31:11.702Z,43.98
2019-04-20T18:33:13.683Z,43.59
2019-04-20T18:35:18.200Z,43.70
2019-04-20T18:37:21.366Z,44.22
2019-04-20T18:39:29.148Z,44.26
2019-04-20T18:41:31.878Z,44.27
2019-04-20T18:43:27.103Z,44.30
2019-04-20T18:45:41.043Z,44.65
2019-04-20T18:47:48.042Z,44.58
2019-04-20T18:49:43.428Z,44.46
2019-04-20T18:51:30.053Z,44.63
2019-04-20T18:53:38.741Z,44.93
2019-04-20T18:55:41.780Z,44.70
2019-04-20T18:57:36.315Z,45.00
2019-04-20T18:59:45.005Z,44.98
2019-04-20T19:01:42.863Z,44.98
2019-04-20T19:03:43.716Z,44.93
2019-04-20T19:05:42.115Z,44.67
2019-04-20T19:07:53.926Z,44.87
2019-04-20T19:09:45.009Z,44.77
2019-04-20T19:11:54.683Z,45.12
2019-04-20T19:13:56.440Z,45.02
2019-04-20T19:16:23.247Z,45.30
2019-04-20T19:18:33.463Z,45.18
2019-04-20T19:20:23.795Z,45.68
2019-04-20T19:22:23.930Z,45.41
2019-04-20T19:24:29.186Z,45.40
2019-04-20T19:26:27.264Z,45.00
2019-04-20T19:28:33.325Z,45.44
2019-04-20T19:30:37.641Z,45.14
2019-04-20T19:32:45.321Z,45.08
2019-04-20T19:34:46.389Z,45.29
2019-04-20T19:36:41.426Z,45.44
2019-04-20T19:38:49.669Z,45.34
2019-04-20T19:40:47.778Z,45.78
2019-04-20T19:42:55.803Z,45.62
2019-04-20T19:44:53.919Z,45.40
2019-04-20T19:47:04.891Z,45.69
2019-04-20T19:48:52.729Z,45.31
2019-04-20T19:51:09.804Z,45.30
2019-04-20T19:53:16.445Z,45.62
2019-04-20T19:55:08.183Z,46.19
2019-04-20T19:57:07.839Z,45.67
2019-04-20T19:59:07.179Z,45.82
2019-04-20T20:00:57.723Z,46.50
2019-04-20T20:02:57.389Z,46.30
2019-04-20T20:05:04.090Z,46.02
2019-04-20T20:07:04.020Z,45.97
2019-04-20T20:09:05.834Z,46.04
2019-04-20T20:11:04.908Z,46.08
2019-04-20T20:13:06.079Z,45.83
2019-04-20T20:15:13.823Z,45.78
2019-04-20T20:17:26.838Z,45.75
2019-04-20T20:19:21.345Z,45.75
2019-04-20T20:21:23.484Z,45.77
2019-04-20T20:23:14.109Z,45.72
2019-04-20T20:25:14.965Z,46.07
2019-04-20T20:27:26.439Z,45.98
2019-04-20T20:29:26.206Z,45.57
2019-04-20T20:31:29.662Z,45.89
2019-04-20T20:33:39.210Z,46.30
2019-04-20T20:35:26.005Z,45.74
2019-04-20T20:37:33.761Z,46.70
2019-04-20T20:39:31.060Z,46.05
2019-04-20T20:41:38.578Z,46.71
2019-04-20T20:43:47.461Z,46.44
2019-04-20T20:45:38.420Z,46.78
2019-04-20T20:47:55.296Z,46.83
2019-04-20T20:50:02.859Z,45.88
2019-04-20T20:51:54.337Z,46.73
2019-04-20T20:53:51.030Z,46.90
2019-04-20T20:55:44.075Z,47.13
2019-04-20T20:57:49.468Z,47.20
2019-04-20T20:59:54.823Z,45.97
2019-04-20T21:01:52.398Z,47.15
2019-04-20T21:03:49.018Z,46.67
2019-04-20T21:05:47.684Z,46.83
2019-04-20T21:07:51.215Z,46.86
2019-04-20T21:09:52.311Z,47.05
2019-04-20T21:12:00.709Z,46.88
2019-04-20T21:13:55.742Z,46.85
2019-04-20T21:16:02.529Z,46.89
2019-04-20T21:18:20.572Z,47.85
2019-04-20T21:20:15.693Z,47.60
2019-04-20T21:22:08.436Z,47.10
2019-04-20T21:24:10.869Z,47.09
2019-04-20T21:26:06.987Z,47.91
2019-04-20T21:28:08.906Z,47.50
2019-04-20T21:30:17.205Z,47.82
2019-04-20T21:32:14.718Z,47.56
2019-04-20T21:34:18.663Z,46.38
2019-04-20T21:36:20.727Z,47.90
2019-04-20T21:38:18.569Z,48.13
2019-04-20T21:40:27.848Z,47.73
2019-04-20T21:42:23.435Z,48.31
2019-04-20T21:44:25.754Z,47.90
2019-04-20T21:46:24.788Z,48.01
2019-04-20T21:48:40.543Z,48.20
2019-04-20T21:50:45.309Z,48.45
2019-04-20T21:52:37.247Z,48.65
2019-04-20T21:54:30.144Z,48.64
2019-04-20T21:56:31.764Z,48.80
2019-04-20T21:58:42.672Z,49.15
2019-04-20T22:00:42.605Z,49.21
2019-04-20T22:02:43.798Z,49.17
2019-04-20T22:04:45.265Z,49.68
2019-04-20T22:06:47.076Z,49.83
2019-04-20T22:08:59.784Z,49.79
2019-04-20T22:10:57.644Z,49.91
2019-04-20T22:13:00.974Z,50.36
2019-04-20T22:15:07.470Z,50.08
2019-04-20T22:17:03.657Z,50.21
2019-04-20T22:19:17.266Z,50.57
2019-04-20T22:21:16.638Z,50.40
2019-04-20T22:23:22.852Z,50.25
2019-04-20T22:25:28.261Z,50.37
2019-04-20T22:27:18.552Z,50.41
2019-04-20T22:29:12.095Z,50.67
2019-04-20T22:31:14.096Z,50.54
2019-04-20T22:33:22.801Z,50.55
2019-04-20T22:35:19.228Z,50.23
2019-04-20T22:37:24.743Z,50.42
2019-04-20T22:39:24.550Z,50.53
2019-04-20T22:41:26.072Z,50.42
2019-04-20T22:43:31.285Z,50.47
2019-04-20T22:45:27.288Z,50.60
2019-04-20T22:47:31.855Z,50.54
2019-04-20T22:49:46.746Z,50.65
2019-04-20T22:51:47.479Z,50.79
2019-04-20T22:53:45.071Z,50.71
2019-04-20T22:55:59.739Z,50.58
2019-04-20T22:57:48.417Z,50.97
2019-04-20T22:59:48.429Z,51.02
2019-04-20T23:01:46.501Z,51.14
2019-04-20T23:03:41.335Z,51.16
2019-04-20T23:05:42.910Z,51.25
2019-04-20T23:07:44.518Z,51.10
2019-04-20T23:09:52.729Z,51.29
2019-04-20T23:11:47.737Z,51.19
2019-04-20T23:13:51.411Z,51.30
2019-04-20T23:15:56.477Z,51.56
2019-04-20T23:17:53.918Z,51.64
2019-04-20T23:19:58.228Z,51.52
2019-04-20T23:22:01.239Z,51.40
2019-04-20T23:24:00.477Z,51.59
2019-04-20T23:25:59.283Z,51.52
2019-04-20T23:28:07.697Z,51.58
2019-04-20T23:30:11.244Z,51.72
2019-04-20T23:32:07.685Z,51.99
2019-04-20T23:34:10.136Z,52.14
2019-04-20T23:36:08.490Z,52.16
2019-04-20T23:38:14.416Z,52.09
2019-04-20T23:40:13.209Z,52.18
2019-04-20T23:42:14.353Z,52.16
2019-04-20T23:44:19.056Z,51.89
2019-04-20T23:46:26.030Z,51.79
2019-04-20T23:48:28.499Z,51.88
2019-04-20T23:50:40.945Z,51.96
2019-04-20T23:52:48.788Z,51.88
2019-04-20T23:54:30.229Z,52.00
2019-04-20T23:56:29.935Z,51.87
2019-04-20T23:58:38.109Z,51.84
